Time;durP1;ratioP1;P1;durP2;ratioP2;P2;SDS_P1;SDS_P2;PMS_P1;PMS_P2;Temp;Humidity;BMP_temperature;BMP_pressure;BME280_temperature;BME280_humidity;BME280_pressure;Samples;Min_cycle;Max_cycle;Signal;HPM_P1;HPM_P2
2023/01/06 00:00:15;;;;;;;6.60;2.70;;;;;;;3.21;100.00;101145.03;5023564;28;20037;-73
2023/01/06 00:02:40;;;;;;;6.75;2.10;;;;;;;3.16;100.00;101140.06;4998781;28;20279;-73
2023/01/06 00:05:06;;;;;;;8.57;2.10;;;;;;;3.15;100.00;101150.72;5002352;28;20088;-73
2023/01/06 00:07:31;;;;;;;12.75;3.15;;;;;;;3.22;100.00;101159.91;5014668;28;20036;-72
2023/01/06 00:09:57;;;;;;;9.93;3.07;;;;;;;3.17;100.00;101169.94;5023989;28;20041;-73
2023/01/06 00:12:22;;;;;;;10.07;2.80;;;;;;;3.02;100.00;101171.81;5024254;28;20045;-69
2023/01/06 00:14:47;;;;;;;14.53;3.67;;;;;;;3.08;100.00;101194.28;5023253;28;20040;-69
2023/01/06 00:17:13;;;;;;;15.50;3.97;;;;;;;3.11;100.00;101213.41;5006695;28;20036;-72
2023/01/06 00:19:38;;;;;;;13.82;3.72;;;;;;;3.13;100.00;101211.50;5023308;28;20315;-72
2023/01/06 00:22:04;;;;;;;10.35;4.75;;;;;;;3.07;100.00;101208.44;4988595;28;20481;-71
2023/01/06 00:24:32;;;;;;;11.25;4.05;;;;;;;3.12;100.00;101198.41;5005282;28;20029;-73
2023/01/06 00:26:58;;;;;;;7.75;4.30;;;;;;;3.19;100.00;101199.69;4991143;28;20060;-69
2023/01/06 00:29:23;;;;;;;12.23;3.67;;;;;;;3.20;100.00;101185.53;5006476;28;20061;-73
2023/01/06 00:31:51;;;;;;;14.82;4.05;;;;;;;3.29;100.00;101194.63;5004732;28;20612;-71
2023/01/06 00:34:16;;;;;;;14.20;5.55;;;;;;;3.28;100.00;101182.41;5023063;28;20083;-70
2023/01/06 00:36:41;;;;;;;8.53;4.10;;;;;;;3.27;100.00;101184.16;4988407;28;20099;-73
2023/01/06 00:39:11;;;;;;;13.05;3.78;;;;;;;3.25;100.00;101188.72;5022877;28;20079;-72
2023/01/06 00:44:21;;;;;;;18.10;4.60;;;;;;;3.29;100.00;101178.81;5023994;28;20079;-73
2023/01/06 00:46:46;;;;;;;10.63;4.27;;;;;;;3.29;100.00;101179.63;5004501;28;20045;-73
2023/01/06 00:49:12;;;;;;;15.35;5.28;;;;;;;3.30;100.00;101165.50;5023872;28;20033;-70
2023/01/06 00:51:39;;;;;;;16.20;5.20;;;;;;;3.31;100.00;101164.53;5020758;28;20049;-72
2023/01/06 00:54:06;;;;;;;20.33;5.28;;;;;;;3.33;100.00;101162.66;5023163;28;20264;-73
2023/01/06 00:56:31;;;;;;;25.27;7.07;;;;;;;3.38;100.00;101159.69;5022019;28;20084;-71
2023/01/06 00:58:57;;;;;;;19.55;5.45;;;;;;;3.39;100.00;101164.00;4988147;28;20774;-74
2023/01/06 01:01:22;;;;;;;;;;;;;;;3.49;100.00;101175.66;4987975;28;20239;-73
2023/01/06 01:03:48;;;;;;;15.35;5.25;;;;;;;3.49;100.00;101166.84;4990275;28;20007;-73
2023/01/06 01:06:15;;;;;;;9.73;5.43;;;;;;;3.56;100.00;101162.88;5022192;28;20021;-72
2023/01/06 01:08:40;;;;;;;20.70;6.28;;;;;;;3.55;100.00;101151.44;5021037;28;20171;-73
2023/01/06 01:11:08;;;;;;;14.73;6.33;;;;;;;3.64;100.00;101168.44;5006145;28;20120;-73
2023/01/06 01:13:34;;;;;;;17.50;6.65;;;;;;;3.70;100.00;101157.47;5022986;28;20036;-73
2023/01/06 01:16:04;;;;;;;9.55;4.90;;;;;;;3.73;100.00;101151.94;5023246;28;20033;-73
2023/01/06 01:18:31;;;;;;;13.55;5.82;;;;;;;3.75;100.00;101150.03;5012052;28;20061;-73
2023/01/06 01:20:57;;;;;;;;;;;;;;;3.77;100.00;101150.78;5022188;28;20025;-71
2023/01/06 01:23:22;;;;;;;25.70;6.05;;;;;;;3.74;100.00;101148.34;5023222;28;20278;-70
2023/01/06 01:25:47;;;;;;;10.97;5.07;;;;;;;3.78;100.00;101147.19;5021045;28;20037;-71
2023/01/06 01:28:13;;;;;;;14.37;6.53;;;;;;;3.81;100.00;101149.59;5023148;28;20025;-71
2023/01/06 01:30:39;;;;;;;28.20;6.13;;;;;;;3.85;100.00;101146.75;5003896;28;20280;-73
2023/01/06 01:33:04;;;;;;;18.57;5.77;;;;;;;3.89;100.00;101146.44;5005609;28;20033;-73
2023/01/06 01:35:29;;;;;;;17.60;5.73;;;;;;;3.84;100.00;101129.19;5022847;28;20040;-73
2023/01/06 01:37:54;;;;;;;14.30;5.70;;;;;;;3.87;100.00;101123.72;5007001;28;20033;-73
2023/01/06 01:40:20;;;;;;;14.97;6.10;;;;;;;3.86;100.00;101124.66;5023276;28;20033;-72
2023/01/06 01:42:45;;;;;;;19.27;8.53;;;;;;;3.90;100.00;101131.41;5022195;28;20079;-73
2023/01/06 01:45:26;;;;;;;27.70;6.70;;;;;;;3.91;100.00;101130.44;5021599;28;20033;-73
2023/01/06 01:48:02;;;;;;;13.00;6.03;;;;;;;3.97;100.00;101127.38;5020433;28;20048;-73
2023/01/06 01:50:39;;;;;;;18.00;7.65;;;;;;;3.99;100.00;101125.47;5021498;28;20040;-71
2023/01/06 01:53:14;;;;;;;14.65;6.13;;;;;;;4.02;100.00;101125.25;4981841;28;20161;-72
2023/01/06 01:55:39;;;;;;;20.90;8.15;;;;;;;4.01;100.00;101113.00;4987439;28;20056;-73
2023/01/06 01:58:15;;;;;;;17.52;7.15;;;;;;;4.03;100.00;101105.81;5016908;28;20480;-73
2023/01/06 02:00:42;;;;;;;16.90;6.50;;;;;;;4.02;100.00;101117.31;5003804;28;20182;-74
2023/01/06 02:03:08;;;;;;;22.35;7.68;;;;;;;4.04;100.00;101118.06;5013099;28;20040;-69
2023/01/06 02:05:38;;;;;;;18.60;6.40;;;;;;;4.04;100.00;101107.47;4989063;28;20119;-72
2023/01/06 02:08:35;;;;;;;25.40;7.03;;;;;;;4.08;100.00;101106.31;4981247;28;20438;-74
2023/01/06 02:11:03;;;;;;;18.90;7.25;;;;;;;4.11;100.00;101089.38;5014590;28;20032;-72
2023/01/06 02:13:30;;;;;;;21.42;8.35;;;;;;;4.05;100.00;101087.19;5021610;28;20437;-73
2023/01/06 02:16:06;;;;;;;19.25;7.28;;;;;;;4.10;100.00;101085.91;5002674;28;20022;-73
2023/01/06 02:19:01;;;;;;;15.07;7.43;;;;;;;4.15;100.00;101090.84;5003482;28;20494;-71
2023/01/06 02:21:40;;;;;;;18.30;7.40;;;;;;;4.13;100.00;101077.75;5014674;28;20041;-73
2023/01/06 02:24:33;;;;;;;18.77;7.93;;;;;;;4.22;100.00;101074.44;5009016;28;20168;-72
2023/01/06 02:27:04;;;;;;;21.48;7.95;;;;;;;4.22;100.00;101071.78;4987026;28;20041;-73
2023/01/06 02:30:00;;;;;;;19.13;7.93;;;;;;;4.23;100.00;101078.75;5020519;28;20033;-73
2023/01/06 02:32:48;;;;;;;23.15;8.07;;;;;;;4.22;100.00;101063.84;5006644;28;20030;-73
2023/01/06 02:35:16;;;;;;;23.83;8.30;;;;;;;4.25;100.00;101061.94;5001747;28;20036;-72
2023/01/06 02:37:46;;;;;;;27.05;8.38;;;;;;;4.27;100.00;101050.31;5007825;28;20243;-73
2023/01/06 02:40:27;;;;;;;23.95;9.18;;;;;;;4.29;100.00;101048.38;5025098;28;20040;-71
2023/01/06 02:43:13;;;;;;;19.42;8.90;;;;;;;4.30;100.00;101036.00;5000346;28;20173;-72
2023/01/06 02:46:05;;;;;;;16.55;8.23;;;;;;;4.35;100.00;101037.34;5007148;28;20175;-73
2023/01/06 02:48:57;;;;;;;25.25;9.15;;;;;;;4.38;100.00;101036.28;5001941;28;20438;-70
2023/01/06 02:51:34;;;;;;;22.33;8.40;;;;;;;4.39;100.00;101022.09;5011229;28;20429;-70
2023/01/06 02:54:24;;;;;;;29.52;8.25;;;;;;;4.38;100.00;101017.78;4989835;28;20021;-71
2023/01/06 02:57:19;;;;;;;20.75;8.30;;;;;;;4.39;100.00;101012.38;4992276;28;20034;-72
2023/01/06 03:00:00;;;;;;;16.93;7.47;;;;;;;4.43;100.00;101013.00;5020412;28;20473;-72
2023/01/06 03:02:28;;;;;;;18.35;10.50;;;;;;;4.47;100.00;100997.72;4990269;28;20316;-73
2023/01/06 03:04:55;;;;;;;18.02;8.90;;;;;;;4.48;100.00;100994.13;5008504;28;20022;-72
2023/01/06 03:07:22;;;;;;;21.75;8.55;;;;;;;4.47;100.00;100992.44;5025266;28;20025;-73
2023/01/06 03:09:52;;;;;;;19.65;9.40;;;;;;;4.51;100.00;100994.72;4991388;28;20797;-73
2023/01/06 03:12:26;;;;;;;22.40;10.35;;;;;;;4.55;100.00;100993.53;5025427;28;20036;-69
2023/01/06 03:14:55;;;;;;;23.40;9.07;;;;;;;4.49;100.00;100990.50;5006487;28;20504;-73
2023/01/06 03:17:25;;;;;;;20.67;9.68;;;;;;;4.51;100.00;100978.84;5008244;28;20025;-73
2023/01/06 03:19:51;;;;;;;18.23;8.77;;;;;;;4.57;100.00;100988.97;5023159;28;20034;-72
2023/01/06 03:22:18;;;;;;;20.67;9.27;;;;;;;4.60;100.00;100980.81;5026024;28;20036;-70
2023/01/06 03:24:44;;;;;;;21.35;8.43;;;;;;;4.62;100.00;100981.53;5022617;28;20053;-73
2023/01/06 03:27:10;;;;;;;20.25;9.55;;;;;;;4.61;100.00;100973.69;5019992;28;20048;-73
2023/01/06 03:29:37;;;;;;;17.83;8.50;;;;;;;4.65;100.00;100965.41;5016996;28;20041;-73
2023/01/06 03:32:06;;;;;;;;;;;;;;;4.70;100.00;100967.69;4997391;28;20394;-70
2023/01/06 03:34:49;;;;;;;23.83;10.25;;;;;;;4.63;100.00;100961.22;4990888;28;19914;-72
2023/01/06 03:37:42;;;;;;;16.67;8.38;;;;;;;4.71;100.00;100958.00;4985245;28;20498;-73
2023/01/06 03:40:45;;;;;;;15.23;7.82;;;;;;;4.74;100.00;100955.09;4994219;28;20037;-72
2023/01/06 03:43:36;;;;;;;16.10;8.18;;;;;;;4.74;100.00;100934.78;5000728;28;20717;-71
2023/01/06 03:46:25;;;;;;;19.23;9.02;;;;;;;4.72;100.00;100926.13;5017436;28;20446;-71
2023/01/06 03:49:08;;;;;;;13.00;7.85;;;;;;;4.70;100.00;100924.56;5022877;28;20712;-73
2023/01/06 03:51:57;;;;;;;16.20;8.65;;;;;;;4.72;100.00;100920.81;5020748;23;20473;-73
2023/01/06 03:54:39;;;;;;;20.73;8.55;;;;;;;4.76;100.00;100916.16;5025252;28;20450;-76
2023/01/06 03:57:14;;;;;;;13.88;7.90;;;;;;;4.84;100.00;100921.66;5016459;28;20033;-76
2023/01/06 03:59:43;;;;;;;13.82;8.10;;;;;;;4.78;100.00;100907.13;5007376;28;20030;-76
2023/01/06 04:02:12;;;;;;;16.58;7.65;;;;;;;4.78;100.00;100915.06;5017524;28;20025;-76
2023/01/06 04:04:38;;;;;;;12.05;7.07;;;;;;;4.78;100.00;100890.41;5023172;28;20051;-75
2023/01/06 04:07:04;;;;;;;17.27;8.53;;;;;;;4.83;100.00;100893.53;4990653;28;20036;-76
2023/01/06 04:09:32;;;;;;;13.82;7.88;;;;;;;4.84;100.00;100892.56;5006201;28;20399;-76
2023/01/06 04:14:43;;;;;;;15.55;9.00;;;;;;;4.84;100.00;100885.44;5020201;28;20475;-76
2023/01/06 04:17:09;;;;;;;16.40;8.30;;;;;;;4.89;100.00;100882.44;5019065;28;20075;-76
2023/01/06 04:19:34;;;;;;;15.25;8.05;;;;;;;4.88;100.00;100879.94;5018356;28;20033;-76
2023/01/06 04:22:00;;;;;;;14.30;9.13;;;;;;;4.94;100.00;100869.72;5009278;28;20039;-76
2023/01/06 04:24:29;;;;;;;17.05;8.85;;;;;;;4.93;100.00;100867.19;5024600;28;20060;-76
2023/01/06 04:26:55;;;;;;;18.85;9.18;;;;;;;4.94;100.00;100864.41;5007149;28;20548;-76
2023/01/06 04:29:20;;;;;;;17.63;9.60;;;;;;;4.90;100.00;100857.69;4993264;28;20029;-76
2023/01/06 04:31:47;;;;;;;22.52;10.20;;;;;;;4.98;100.00;100854.41;5023928;28;20026;-76
2023/01/06 04:34:13;;;;;;;17.90;10.23;;;;;;;4.98;100.00;100855.25;5024599;28;20053;-76
2023/01/06 04:36:38;;;;;;;20.25;11.05;;;;;;;5.06;100.00;100854.66;5007897;28;20072;-76
2023/01/06 04:39:05;;;;;;;22.52;11.63;;;;;;;5.07;100.00;100861.63;5024496;28;20028;-76
2023/01/06 04:41:31;;;;;;;25.95;10.80;;;;;;;5.05;100.00;100845.84;5023553;28;20520;-76
2023/01/06 04:43:56;;;;;;;24.48;12.57;;;;;;;5.13;100.00;100839.09;5016897;28;20030;-76
2023/01/06 04:46:21;;;;;;;21.97;12.47;;;;;;;5.18;100.00;100835.13;5023599;28;20677;-76
2023/01/06 04:48:47;;;;;;;19.00;10.57;;;;;;;5.24;100.00;100829.34;4999578;28;20375;-76
2023/01/06 04:51:12;;;;;;;22.30;11.37;;;;;;;5.29;100.00;100835.09;5025252;28;20710;-75
2023/01/06 04:53:39;;;;;;;21.00;11.37;;;;;;;5.42;100.00;100820.84;5023158;28;20340;-76
2023/01/06 04:56:07;;;;;;;18.42;10.40;;;;;;;5.44;100.00;100817.09;5023900;28;20030;-76
2023/01/06 04:58:33;;;;;;;19.95;10.55;;;;;;;5.49;100.00;100811.41;5023934;28;20107;-76
2023/01/06 05:01:04;;;;;;;19.90;10.27;;;;;;;5.49;100.00;100817.53;5017330;28;20657;-75
2023/01/06 05:03:30;;;;;;;18.10;9.77;;;;;;;5.47;100.00;100808.88;5025426;28;20466;-76
2023/01/06 05:05:59;;;;;;;18.58;10.25;;;;;;;5.53;100.00;100796.13;5024152;28;20061;-76
2023/01/06 05:08:24;;;;;;;15.15;9.10;;;;;;;5.54;100.00;100795.13;5017187;28;20038;-76
2023/01/06 05:10:49;;;;;;;17.57;9.83;;;;;;;5.48;100.00;100780.59;5023219;28;20124;-76
2023/01/06 05:13:15;;;;;;;18.23;9.55;;;;;;;5.53;100.00;100780.22;5024974;28;20037;-76
2023/01/06 05:15:40;;;;;;;20.83;9.57;;;;;;;5.55;100.00;100781.78;5022522;28;20033;-76
2023/01/06 05:18:06;;;;;;;20.65;11.05;;;;;;;5.58;100.00;100767.44;5023911;28;20036;-76
2023/01/06 05:20:31;;;;;;;21.70;11.07;;;;;;;5.61;100.00;100770.66;5024867;28;20175;-76
2023/01/06 05:22:56;;;;;;;22.10;12.17;;;;;;;5.64;100.00;100766.88;5024394;28;20052;-76
2023/01/06 05:25:22;;;;;;;25.37;13.30;;;;;;;5.60;100.00;100754.91;5024835;28;20030;-77
2023/01/06 05:27:47;;;;;;;22.97;12.40;;;;;;;5.70;100.00;100756.63;5021747;28;20671;-77
2023/01/06 05:30:12;;;;;;;31.50;13.73;;;;;;;5.64;100.00;100754.50;5006126;28;20478;-76
2023/01/06 05:32:38;;;;;;;34.43;15.23;;;;;;;5.70;100.00;100748.66;5021082;28;20067;-76
2023/01/06 05:35:03;;;;;;;25.13;12.97;;;;;;;5.79;100.00;100741.75;5024797;28;20026;-76
2023/01/06 05:37:28;;;;;;;28.42;13.43;;;;;;;5.75;100.00;100740.34;5023464;28;20049;-76
2023/01/06 05:39:54;;;;;;;35.17;16.20;;;;;;;5.79;100.00;100733.81;4998827;28;20394;-76
2023/01/06 05:42:19;;;;;;;32.73;13.73;;;;;;;5.83;100.00;100724.63;5015121;28;20559;-76
2023/01/06 05:44:44;;;;;;;30.60;13.13;;;;;;;5.88;100.00;100722.41;5022793;28;20450;-76
2023/01/06 05:47:10;;;;;;;30.27;14.60;;;;;;;5.91;100.00;100727.44;4988798;28;20427;-76
2023/01/06 05:49:35;;;;;;;34.47;16.70;;;;;;;5.92;100.00;100721.19;5012565;28;20457;-77
2023/01/06 05:52:00;;;;;;;37.07;16.43;;;;;;;5.95;100.00;100717.47;5023827;28;20037;-76
2023/01/06 05:54:26;;;;;;;36.07;15.03;;;;;;;6.02;100.00;100720.44;5023446;28;20040;-76
2023/01/06 05:56:51;;;;;;;40.30;16.70;;;;;;;6.10;100.00;100721.41;5020403;28;20030;-76
2023/01/06 05:59:16;;;;;;;33.93;16.83;;;;;;;6.08;100.00;100711.91;5012161;28;20065;-77
2023/01/06 06:01:42;;;;;;;34.63;16.50;;;;;;;6.14;100.00;100719.34;5014703;28;20036;-78
2023/01/06 06:04:07;;;;;;;36.17;16.77;;;;;;;6.16;100.00;100719.19;5024818;28;20157;-76
2023/01/06 06:06:32;;;;;;;43.10;18.43;;;;;;;6.12;100.00;100706.22;5026757;28;20061;-77
2023/01/06 06:08:58;;;;;;;47.67;17.93;;;;;;;6.22;100.00;100711.53;5019032;28;20100;-78
2023/01/06 06:11:24;;;;;;;48.63;20.58;;;;;;;6.27;100.00;100719.09;4992601;28;20088;-77
2023/01/06 06:13:51;;;;;;;48.50;19.85;;;;;;;6.27;100.00;100711.13;5026027;28;20025;-78
2023/01/06 06:16:19;;;;;;;50.25;20.35;;;;;;;6.23;100.00;100702.63;5029499;28;20816;-78
2023/01/06 06:18:51;;;;;;;50.10;21.77;;;;;;;6.32;100.00;100699.16;5011435;28;20033;-76
2023/01/06 06:21:18;;;;;;;44.83;19.05;;;;;;;6.36;100.00;100706.84;5013110;28;20170;-78
2023/01/06 06:23:44;;;;;;;47.03;21.60;;;;;;;6.38;100.00;100688.97;5029867;28;20037;-78
2023/01/06 06:26:10;;;;;;;54.97;21.37;;;;;;;6.44;100.00;100693.72;5013618;28;20018;-79
2023/01/06 06:28:37;;;;;;;50.97;21.02;;;;;;;6.46;100.00;100687.34;5005036;28;20490;-78
2023/01/06 06:31:14;;;;;;;56.45;23.52;;;;;;;6.50;100.00;100682.56;4996250;28;20033;-78
2023/01/06 06:33:40;;;;;;;50.92;24.15;;;;;;;6.52;100.00;100676.16;5026030;28;20147;-78
2023/01/06 06:36:11;;;;;;;59.10;21.77;;;;;;;6.59;100.00;100671.13;5023176;28;20097;-78
2023/01/06 06:38:37;;;;;;;53.92;22.67;;;;;;;6.60;100.00;100669.31;5026548;28;20039;-78
2023/01/06 06:41:03;;;;;;;56.38;24.95;;;;;;;6.65;100.00;100689.16;5013544;28;20025;-79
2023/01/06 06:43:28;;;;;;;54.58;22.77;;;;;;;6.72;100.00;100684.16;5011517;28;20511;-78
2023/01/06 06:45:54;;;;;;;58.10;25.37;;;;;;;6.80;100.00;100680.78;5026804;28;20042;-79
2023/01/06 06:48:19;;;;;;;50.13;22.80;;;;;;;6.81;100.00;100666.53;5027498;28;20282;-80
2023/01/06 06:50:44;;;;;;;53.67;23.50;;;;;;;6.84;100.00;100672.41;5025304;28;20037;-79
2023/01/06 06:53:10;;;;;;;55.13;23.13;;;;;;;6.92;100.00;100663.75;5006294;28;20034;-79
2023/01/06 06:55:35;;;;;;;52.17;23.53;;;;;;;6.96;100.00;100665.97;4993247;28;20037;-79
2023/01/06 06:58:00;;;;;;;69.00;26.67;;;;;;;6.96;100.00;100659.84;4995805;28;20037;-78
2023/01/06 07:00:26;;;;;;;53.73;23.10;;;;;;;7.06;100.00;100665.97;5025595;28;20052;-80
2023/01/06 07:02:51;;;;;;;50.33;22.67;;;;;;;7.16;100.00;100666.81;5002417;28;20037;-79
2023/01/06 07:05:17;;;;;;;50.67;22.13;;;;;;;7.20;100.00;100667.34;5022924;28;20296;-80
2023/01/06 07:07:43;;;;;;;52.15;21.30;;;;;;;7.26;100.00;100660.59;4992976;28;20293;-79
2023/01/06 07:10:14;;;;;;;51.28;22.85;;;;;;;7.27;100.00;100651.69;5019671;28;20045;-78
2023/01/06 07:12:39;;;;;;;48.53;22.15;;;;;;;7.33;100.00;100653.78;5018274;28;20038;-81
2023/01/06 07:15:05;;;;;;;50.33;21.90;;;;;;;7.36;100.00;100645.50;4991120;28;20025;-80
2023/01/06 07:17:31;;;;;;;45.03;21.00;;;;;;;7.38;100.00;100632.94;4992152;28;20521;-80
2023/01/06 07:19:56;;;;;;;55.93;23.53;;;;;;;7.42;100.00;100634.28;4994999;28;20077;-80
2023/01/06 07:22:21;;;;;;;53.87;24.37;;;;;;;7.47;100.00;100632.06;5011373;28;20037;-80
2023/01/06 07:24:47;;;;;;;57.67;22.70;;;;;;;7.50;100.00;100615.81;5019866;28;20042;-79
2023/01/06 07:27:12;;;;;;;51.10;22.40;;;;;;;7.55;100.00;100613.56;5010410;28;20429;-80
2023/01/06 07:29:37;;;;;;;59.63;26.10;;;;;;;7.55;100.00;100610.91;5009112;28;20449;-80
2023/01/06 07:32:03;;;;;;;59.30;25.57;;;;;;;7.53;100.00;100598.75;5002539;28;20061;-79
2023/01/06 07:34:29;;;;;;;53.45;23.45;;;;;;;7.56;100.00;100583.38;5009547;28;20032;-80
2023/01/06 07:36:54;;;;;;;44.00;23.40;;;;;;;7.65;100.00;100596.75;5009327;28;20038;-80
2023/01/06 07:39:19;;;;;;;55.77;26.23;;;;;;;7.64;100.00;100590.59;5010251;28;20052;-80
2023/01/06 07:41:45;;;;;;;53.47;23.47;;;;;;;7.67;100.00;100597.44;5009712;28;20113;-80
2023/01/06 07:44:10;;;;;;;56.22;24.83;;;;;;;7.67;100.00;100595.59;5009627;28;20060;-81
2023/01/06 07:46:36;;;;;;;50.40;24.53;;;;;;;7.70;100.00;100587.34;4994074;28;20824;-79
2023/01/06 07:49:01;;;;;;;52.90;25.73;;;;;;;7.73;100.00;100586.22;4996841;28;20053;-79
2023/01/06 07:51:26;;;;;;;52.23;27.13;;;;;;;7.77;100.00;100584.91;4998291;28;20045;-78
2023/01/06 07:53:52;;;;;;;54.00;24.50;;;;;;;7.75;100.00;100587.75;5012712;28;20018;-79
2023/01/06 07:56:17;;;;;;;55.07;25.40;;;;;;;7.81;100.00;100591.63;5026449;28;20072;-79
2023/01/06 07:58:42;;;;;;;55.57;24.37;;;;;;;7.72;100.00;100571.25;5009686;28;20067;-79
2023/01/06 08:01:08;;;;;;;50.27;25.57;;;;;;;7.74;100.00;100567.44;5010074;28;20044;-79
2023/01/06 08:03:34;;;;;;;49.40;24.63;;;;;;;7.78;100.00;100562.69;5025880;28;20048;-78
2023/01/06 08:06:08;;;;;;;58.25;24.27;;;;;;;7.83;100.00;100560.41;5016670;28;20026;-79
2023/01/06 08:08:38;;;;;;;51.83;25.77;;;;;;;7.78;100.00;100549.41;4992776;28;20332;-78
2023/01/06 08:11:05;;;;;;;46.22;25.17;;;;;;;7.82;100.00;100559.59;4986826;28;20111;-78
2023/01/06 08:13:31;;;;;;;47.92;24.10;;;;;;;7.84;100.00;100559.41;5008786;28;20026;-78
2023/01/06 08:15:56;;;;;;;49.53;24.48;;;;;;;7.85;100.00;100557.63;4994979;28;20961;-78
2023/01/06 08:18:22;;;;;;;51.67;24.97;;;;;;;7.85;100.00;100554.97;5003775;28;20033;-77
2023/01/06 08:20:47;;;;;;;55.60;25.87;;;;;;;7.88;100.00;100547.50;5010645;28;20034;-78
2023/01/06 08:23:12;;;;;;;51.85;24.48;;;;;;;7.79;100.00;100527.16;5021125;28;20030;-79
2023/01/06 08:25:38;;;;;;;49.03;24.10;;;;;;;7.81;100.00;100535.81;4990908;28;20457;-79
2023/01/06 08:28:03;;;;;;;50.93;23.57;;;;;;;7.80;100.00;100534.16;4994974;28;20121;-79
2023/01/06 08:30:29;;;;;;;54.03;24.65;;;;;;;7.85;100.00;100539.84;5004621;28;20084;-79
2023/01/06 08:32:56;;;;;;;52.67;26.08;;;;;;;7.83;100.00;100539.97;5009259;28;20406;-79
2023/01/06 08:35:22;;;;;;;53.40;25.42;;;;;;;7.81;100.00;100539.28;5020253;28;20076;-79
2023/01/06 08:37:47;;;;;;;52.85;25.25;;;;;;;7.80;100.00;100540.28;4990485;28;20486;-80
2023/01/06 08:40:12;;;;;;;49.58;24.00;;;;;;;7.80;100.00;100537.63;4990870;28;20034;-79
2023/01/06 08:42:38;;;;;;;61.70;28.73;;;;;;;7.83;100.00;100539.16;5007067;28;20072;-80
2023/01/06 08:45:03;;;;;;;51.67;23.90;;;;;;;7.81;100.00;100531.31;4990917;28;20527;-79
2023/01/06 08:47:29;;;;;;;53.70;26.30;;;;;;;7.81;100.00;100533.97;4990863;28;20037;-80
2023/01/06 08:49:54;;;;;;;52.07;25.00;;;;;;;7.80;100.00;100532.31;4993250;28;20041;-80
2023/01/06 08:52:19;;;;;;;55.23;25.67;;;;;;;7.76;100.00;100528.28;5018696;28;20036;-79
2023/01/06 08:54:45;;;;;;;47.00;24.33;;;;;;;7.82;100.00;100532.19;4990390;28;20022;-79
2023/01/06 08:57:10;;;;;;;48.43;24.40;;;;;;;7.82;100.00;100522.38;4990533;28;20036;-80
2023/01/06 08:59:35;;;;;;;47.30;22.30;;;;;;;7.85;100.00;100534.53;5006785;28;20141;-79
2023/01/06 09:02:01;;;;;;;50.20;24.40;;;;;;;7.85;100.00;100529.22;4993183;28;20250;-79
2023/01/06 09:04:26;;;;;;;44.03;22.87;;;;;;;7.83;100.00;100532.00;5003471;28;20698;-79
2023/01/06 09:06:53;;;;;;;43.05;20.60;;;;;;;7.84;100.00;100514.22;5013027;28;20046;-79
2023/01/06 09:09:19;;;;;;;47.00;22.08;;;;;;;7.87;100.00;100526.41;5012324;28;20114;-78
2023/01/06 09:11:45;;;;;;;36.70;20.63;;;;;;;7.91;100.00;100530.41;4989845;28;20140;-78
2023/01/06 09:14:12;;;;;;;40.42;20.63;;;;;;;7.94;100.00;100532.81;5014900;28;20457;-79
2023/01/06 09:16:38;;;;;;;36.25;18.70;;;;;;;7.93;100.00;100526.63;4990036;28;20064;-79
2023/01/06 09:19:04;;;;;;;39.08;19.95;;;;;;;7.88;100.00;100514.78;5006579;28;20033;-79
2023/01/06 09:21:29;;;;;;;36.37;19.53;;;;;;;7.88;100.00;100504.97;5006823;28;20076;-78
2023/01/06 09:23:54;;;;;;;33.77;18.20;;;;;;;7.93;100.00;100526.63;5022805;28;20038;-78
2023/01/06 09:26:20;;;;;;;34.00;18.63;;;;;;;7.96;100.00;100526.34;4989969;28;20299;-79
2023/01/06 09:28:46;;;;;;;36.63;16.75;;;;;;;7.95;100.00;100527.31;4990492;28;20030;-79
2023/01/06 09:31:12;;;;;;;32.47;18.60;;;;;;;7.89;100.00;100509.31;5006454;28;20034;-79
2023/01/06 09:33:37;;;;;;;30.85;15.95;;;;;;;7.92;100.00;100518.81;5007235;28;20541;-80
2023/01/06 09:36:03;;;;;;;35.65;18.15;;;;;;;7.90;100.00;100513.63;4990407;28;20403;-78
2023/01/06 09:38:28;;;;;;;27.85;15.38;;;;;;;7.92;100.00;100509.00;4989504;28;20154;-79
2023/01/06 09:41:03;;;;;;;25.97;15.37;;;;;;;8.01;100.00;100512.59;4990638;28;20025;-79
2023/01/06 09:43:43;;;;;;;25.25;14.57;;;;;;;7.98;100.00;100513.75;4990509;28;20038;-78
2023/01/06 09:46:11;;;;;;;25.02;15.13;;;;;;;7.98;100.00;100508.41;4998345;28;20034;-79
2023/01/06 09:49:00;;;;;;;27.35;15.35;;;;;;;8.01;100.00;100513.44;4990430;28;20827;-79
2023/01/06 09:51:27;;;;;;;23.75;13.93;;;;;;;8.01;100.00;100508.09;5006859;28;20034;-79
2023/01/06 09:54:03;;;;;;;26.75;14.80;;;;;;;8.06;100.00;100510.31;4989718;28;20072;-79
2023/01/06 09:56:29;;;;;;;19.73;11.93;;;;;;;8.06;100.00;100498.84;5013739;28;20095;-79
2023/01/06 09:59:15;;;;;;;16.33;10.63;;;;;;;8.14;100.00;100506.88;4990394;28;20028;-79
2023/01/06 10:01:46;;;;;;;16.92;10.13;;;;;;;8.14;100.00;100512.19;4989145;28;20242;-78
2023/01/06 10:04:29;;;;;;;16.55;10.85;;;;;;;8.19;100.00;100509.91;4989506;28;20034;-79
2023/01/06 10:07:09;;;;;;;17.40;10.38;;;;;;;8.15;100.00;100493.44;5008599;28;20030;-78
2023/01/06 10:09:52;;;;;;;14.90;9.85;;;;;;;8.19;100.00;100517.91;5007845;28;20038;-78
2023/01/06 10:12:45;;;;;;;12.60;8.63;;;;;;;8.14;100.00;100518.34;5023172;28;20033;-78
2023/01/06 10:15:34;;;;;;;9.65;6.57;;;;;;;8.16;100.00;100503.09;5017224;28;20096;-79
2023/01/06 10:18:25;;;;;;;8.43;5.80;;;;;;;8.25;100.00;100504.00;5024311;28;20061;-78
2023/01/06 10:20:56;;;;;;;6.22;4.70;;;;;;;8.24;100.00;100503.16;5016346;28;20040;-77
2023/01/06 10:23:43;;;;;;;8.18;4.93;;;;;;;8.22;100.00;100504.31;5008444;28;20106;-78
2023/01/06 10:26:21;;;;;;;5.22;4.30;;;;;;;8.20;100.00;100495.66;4984850;28;20037;-78
2023/01/06 10:28:52;;;;;;;6.38;4.22;;;;;;;8.18;100.00;100508.25;5007910;28;20842;-77
2023/01/06 10:31:23;;;;;;;6.65;4.43;;;;;;;8.20;100.00;100496.47;5023872;28;20246;-78
2023/01/06 10:33:51;;;;;;;6.65;3.88;;;;;;;8.31;100.00;100506.06;5008968;28;20070;-78
2023/01/06 10:36:25;;;;;;;7.78;4.38;;;;;;;8.39;100.00;100511.44;5008420;28;20022;-77
2023/01/06 10:38:53;;;;;;;5.38;4.25;;;;;;;8.38;100.00;100515.09;5023837;28;20034;-77
2023/01/06 10:41:37;;;;;;;3.85;2.97;;;;;;;8.39;100.00;100511.44;5007619;28;20029;-77
2023/01/06 10:44:02;;;;;;;3.55;2.75;;;;;;;8.36;100.00;100517.06;5025155;28;20483;-77
2023/01/06 10:46:33;;;;;;;3.08;2.30;;;;;;;8.28;100.00;100506.34;5014344;28;20120;-77
2023/01/06 10:49:00;;;;;;;3.60;2.20;;;;;;;8.39;100.00;100521.25;5020656;28;20038;-78
2023/01/06 10:51:35;;;;;;;6.03;2.20;;;;;;;8.80;100.00;100532.22;5007315;28;20026;-77
2023/01/06 10:54:09;;;;;;;4.38;1.90;;;;;;;8.77;100.00;100524.53;5013955;28;20622;-77
2023/01/06 10:56:36;;;;;;;3.55;1.88;;;;;;;8.78;100.00;100521.75;5005445;28;20117;-76
2023/01/06 10:59:08;;;;;;;5.20;1.60;;;;;;;9.36;100.00;100524.69;5008786;28;20026;-76
2023/01/06 11:01:37;;;;;;;3.13;1.83;;;;;;;9.61;100.00;100513.13;5025164;28;20106;-76
2023/01/06 11:04:11;;;;;;;3.10;1.40;;;;;;;9.17;100.00;100469.84;5010085;28;20096;-76
2023/01/06 11:06:41;;;;;;;3.30;1.38;;;;;;;9.24;100.00;100465.53;4992365;28;20037;-78
2023/01/06 11:09:22;;;;;;;2.53;1.33;;;;;;;9.65;100.00;100485.16;5011338;28;20072;-76
2023/01/06 11:11:49;;;;;;;4.13;1.30;;;;;;;10.13;100.00;100475.56;5026831;28;20463;-78
2023/01/06 11:14:19;;;;;;;4.00;1.17;;;;;;;9.88;100.00;100442.72;4995584;28;20014;-79
2023/01/06 11:16:57;;;;;;;8.85;1.60;;;;;;;10.17;100.00;100440.56;5010888;28;20113;-77
2023/01/06 11:19:33;;;;;;;4.90;1.10;;;;;;;9.97;100.00;100406.19;5008353;28;20037;-77
2023/01/06 11:21:58;;;;;;;5.97;1.45;;;;;;;10.01;100.00;100380.06;5025634;28;20494;-77
2023/01/06 11:24:25;;;;;;;7.07;1.10;;;;;;;9.97;100.00;100379.53;4991379;28;20105;-78
2023/01/06 11:27:00;;;;;;;7.55;1.45;;;;;;;10.05;100.00;100352.88;5010494;28;20041;-77
2023/01/06 11:29:34;;;;;;;3.70;1.00;;;;;;;10.25;100.00;100349.84;5019576;28;20042;-77